createdAt,value
2023-03-27T00:01:31.107Z,72.15
2023-03-27T00:03:58.989Z,72.10
2023-03-27T00:06:27.163Z,71.80
2023-03-27T00:08:54.846Z,72.15
2023-03-27T00:11:24.790Z,72.46
2023-03-27T00:13:54.262Z,72.12
2023-03-27T00:16:26.441Z,74.78
2023-03-27T00:18:54.607Z,74.17
2023-03-27T00:21:23.305Z,74.68
2023-03-27T00:23:51.892Z,73.50
2023-03-27T00:26:21.414Z,73.34
2023-03-27T00:28:49.161Z,73.62
2023-03-27T00:31:17.294Z,73.48
2023-03-27T00:33:46.389Z,73.54
2023-03-27T00:36:15.118Z,73.36
2023-03-27T00:38:43.687Z,73.57
2023-03-27T00:41:12.608Z,74.64
2023-03-27T00:43:43.594Z,73.81
2023-03-27T00:46:28.122Z,76.23
2023-03-27T00:48:57.289Z,74.26
2023-03-27T00:51:27.578Z,75.41
2023-03-27T00:53:56.764Z,75.26
2023-03-27T00:56:25.672Z,75.26
2023-03-27T00:58:56.889Z,75.43
2023-03-27T01:01:28.110Z,74.51
2023-03-27T01:04:01.623Z,75.00
2023-03-27T01:06:30.898Z,75.38
2023-03-27T01:08:58.534Z,74.73
2023-03-27T01:11:39.332Z,74.98
2023-03-27T01:14:16.658Z,74.82
2023-03-27T01:16:53.230Z,75.48
2023-03-27T01:19:55.084Z,77.01
2023-03-27T01:22:46.337Z,75.82
2023-03-27T01:25:34.829Z,76.02
2023-03-27T01:28:30.654Z,76.30
2023-03-27T01:31:03.232Z,75.57
2023-03-27T01:33:58.921Z,75.28
2023-03-27T01:37:03.148Z,75.54
2023-03-27T01:39:40.363Z,74.30
2023-03-27T01:42:18.406Z,75.27
2023-03-27T01:44:51.936Z,74.62
2023-03-27T01:47:38.045Z,74.37
2023-03-27T01:50:11.486Z,74.25
2023-03-27T01:52:43.051Z,73.36
2023-03-27T01:55:19.087Z,73.51
2023-03-27T01:57:51.442Z,73.04
2023-03-27T02:00:23.180Z,73.05
2023-03-27T02:02:54.873Z,73.65
2023-03-27T02:05:27.457Z,73.56
2023-03-27T02:08:00.999Z,73.63
2023-03-27T02:10:34.965Z,75.21
2023-03-27T02:13:08.292Z,74.23
2023-03-27T02:15:40.822Z,74.20
2023-03-27T02:18:13.228Z,74.38
2023-03-27T02:20:42.571Z,73.69
2023-03-27T02:23:10.124Z,73.93
2023-03-27T02:25:41.124Z,73.85
2023-03-27T02:28:22.766Z,76.03
2023-03-27T02:31:05.356Z,73.83
2023-03-27T02:33:42.353Z,75.12
2023-03-27T02:36:23.326Z,74.64
2023-03-27T02:38:58.684Z,74.25
2023-03-27T02:41:35.691Z,73.76
2023-03-27T02:44:12.033Z,73.12
2023-03-27T02:46:45.387Z,73.60
2023-03-27T02:49:19.347Z,74.38
2023-03-27T02:51:52.049Z,74.24
2023-03-27T02:54:23.384Z,73.72
2023-03-27T02:56:55.833Z,74.33
2023-03-27T02:59:28.073Z,73.79
2023-03-27T03:01:56.274Z,74.62
2023-03-27T03:04:28.385Z,74.26
2023-03-27T03:06:56.875Z,73.20
2023-03-27T03:09:25.929Z,73.70
2023-03-27T03:11:55.213Z,73.74
2023-03-27T03:14:27.208Z,72.97
2023-03-27T03:16:54.805Z,72.56
2023-03-27T03:19:23.885Z,73.26
2023-03-27T03:21:51.583Z,74.07
2023-03-27T03:24:19.317Z,74.44
2023-03-27T03:26:49.944Z,73.54
2023-03-27T03:29:19.907Z,73.33
2023-03-27T03:31:48.584Z,72.82
2023-03-27T03:34:18.373Z,72.35
2023-03-27T03:36:49.213Z,73.14
2023-03-27T03:39:18.259Z,72.89
2023-03-27T03:41:45.794Z,73.51
2023-03-27T03:44:13.578Z,73.25
2023-03-27T03:46:42.403Z,73.71
2023-03-27T03:49:10.379Z,74.24
2023-03-27T03:51:38.646Z,74.19
2023-03-27T03:54:07.027Z,73.65
2023-03-27T03:56:34.785Z,73.38
2023-03-27T03:59:03.007Z,73.53
2023-03-27T04:01:30.541Z,73.87
2023-03-27T04:03:59.422Z,73.92
2023-03-27T04:06:27.132Z,73.97
2023-03-27T04:08:54.708Z,74.06
2023-03-27T04:11:22.249Z,73.52
2023-03-27T04:13:50.206Z,73.95
2023-03-27T04:16:17.807Z,73.31
2023-03-27T04:18:45.541Z,73.52
2023-03-27T04:21:15.262Z,73.87
2023-03-27T04:23:42.924Z,73.35
2023-03-27T04:26:12.281Z,73.77
2023-03-27T04:28:41.015Z,74.75
2023-03-27T04:31:10.757Z,73.86
2023-03-27T04:33:46.525Z,73.25
2023-03-27T04:36:15.722Z,73.38
2023-03-27T04:38:43.397Z,72.44
2023-03-27T04:41:11.006Z,71.94
2023-03-27T04:43:40.248Z,71.84
2023-03-27T04:46:08.300Z,72.10
2023-03-27T04:48:39.114Z,72.03
2023-03-27T04:51:09.215Z,71.90
2023-03-27T04:53:38.795Z,72.03
2023-03-27T04:56:08.256Z,71.64
2023-03-27T04:58:37.530Z,73.02
2023-03-27T05:01:06.033Z,72.39
2023-03-27T05:03:34.679Z,73.28
2023-03-27T05:06:04.042Z,72.94
2023-03-27T05:08:31.649Z,72.46
2023-03-27T05:11:00.617Z,73.34
2023-03-27T05:13:28.695Z,73.43
2023-03-27T05:15:59.022Z,73.57
2023-03-27T05:18:27.695Z,73.36
2023-03-27T05:20:57.158Z,73.06
2023-03-27T05:23:24.846Z,73.40
2023-03-27T05:25:59.905Z,73.83
2023-03-27T05:28:30.201Z,73.05
2023-03-27T05:30:58.181Z,72.84
2023-03-27T05:33:26.684Z,73.54
2023-03-27T05:35:54.279Z,73.75
2023-03-27T05:38:22.682Z,74.03
2023-03-27T05:40:52.138Z,73.89
2023-03-27T05:43:19.742Z,74.60
2023-03-27T05:45:49.170Z,73.85
2023-03-27T05:48:17.343Z,74.20
2023-03-27T05:50:44.900Z,73.69
2023-03-27T05:53:12.454Z,74.81
2023-03-27T05:55:40.395Z,73.54
2023-03-27T05:58:10.014Z,74.62
2023-03-27T06:00:38.705Z,74.17
2023-03-27T06:03:07.817Z,74.47
2023-03-27T06:05:35.715Z,73.99
2023-03-27T06:08:03.298Z,74.42
2023-03-27T06:10:33.601Z,74.51
2023-03-27T06:13:02.838Z,73.81
2023-03-27T06:15:30.887Z,73.84
2023-03-27T06:17:58.692Z,74.09
2023-03-27T06:20:28.051Z,74.16
2023-03-27T06:22:59.433Z,74.20
2023-03-27T06:25:28.411Z,74.66
2023-03-27T06:27:56.002Z,74.74
2023-03-27T06:30:25.736Z,74.19
2023-03-27T06:32:57.638Z,74.73
2023-03-27T06:35:28.035Z,73.70
2023-03-27T06:37:58.970Z,73.62
2023-03-27T06:40:28.875Z,75.06
2023-03-27T06:42:58.169Z,74.08
2023-03-27T06:45:27.638Z,73.52
2023-03-27T06:48:16.032Z,73.93
2023-03-27T06:50:49.357Z,73.01
2023-03-27T06:55:48.965Z,74.12
2023-03-27T06:58:18.556Z,75.25
2023-03-27T07:00:46.647Z,73.73
2023-03-27T07:03:15.109Z,73.60
2023-03-27T07:05:43.311Z,73.55
2023-03-27T07:08:23.667Z,72.96
2023-03-27T07:11:07.509Z,73.37
2023-03-27T07:13:38.077Z,72.91
2023-03-27T07:16:06.822Z,72.81
2023-03-27T07:18:34.454Z,73.18
2023-03-27T07:21:01.974Z,74.00
2023-03-27T07:23:30.862Z,73.37
2023-03-27T07:25:59.206Z,72.63
2023-03-27T07:28:27.016Z,73.38
2023-03-27T07:30:54.846Z,72.86
2023-03-27T07:33:22.809Z,73.68
2023-03-27T07:35:50.679Z,72.84
2023-03-27T07:38:18.422Z,73.44
2023-03-27T07:40:47.392Z,72.53
2023-03-27T07:43:15.362Z,72.98
2023-03-27T07:45:43.173Z,72.65
2023-03-27T07:48:14.797Z,73.33
2023-03-27T07:50:43.017Z,73.83
2023-03-27T07:53:32.670Z,73.05
2023-03-27T07:55:59.659Z,73.39
2023-03-27T07:58:27.350Z,73.92
2023-03-27T08:00:55.679Z,73.08
2023-03-27T08:03:25.987Z,72.17
2023-03-27T08:05:55.064Z,72.08
2023-03-27T08:08:23.195Z,72.41
2023-03-27T08:10:52.037Z,72.86
2023-03-27T08:13:20.924Z,72.16
2023-03-27T08:15:48.445Z,71.84
2023-03-27T08:18:15.991Z,71.70
2023-03-27T08:20:43.630Z,71.55
2023-03-27T08:23:11.421Z,71.28
2023-03-27T08:25:38.924Z,71.09
2023-03-27T08:28:07.152Z,71.36
2023-03-27T08:30:36.569Z,71.31
2023-03-27T08:33:04.210Z,72.32
2023-03-27T08:35:32.380Z,71.90
2023-03-27T08:38:00.029Z,72.02
2023-03-27T08:40:30.803Z,70.70
2023-03-27T08:43:07.514Z,69.83
2023-03-27T08:45:43.831Z,70.15
2023-03-27T08:48:17.923Z,70.37
2023-03-27T08:50:50.577Z,69.03
2023-03-27T08:53:24.463Z,67.15
2023-03-27T08:55:52.533Z,68.45
2023-03-27T08:58:22.545Z,68.33
2023-03-27T09:00:59.599Z,67.37
2023-03-27T09:03:32.420Z,66.30
2023-03-27T09:06:03.632Z,64.39
2023-03-27T09:08:43.637Z,65.68
2023-03-27T09:11:23.884Z,64.43
2023-03-27T09:13:53.043Z,63.62
2023-03-27T09:16:27.351Z,62.78
2023-03-27T09:19:00.872Z,64.56
2023-03-27T09:21:36.057Z,63.31
2023-03-27T09:24:10.151Z,60.64
2023-03-27T09:26:38.237Z,61.93
2023-03-27T09:29:19.892Z,58.75
2023-03-27T09:31:51.139Z,59.38
2023-03-27T09:34:23.593Z,58.51
2023-03-27T09:36:51.624Z,58.87
2023-03-27T09:39:22.778Z,57.93
2023-03-27T09:41:54.351Z,56.98
2023-03-27T09:44:26.139Z,56.42
2023-03-27T09:47:00.092Z,55.55
2023-03-27T09:49:28.226Z,55.29
2023-03-27T09:51:58.216Z,54.33
2023-03-27T09:54:28.915Z,56.03
2023-03-27T09:57:02.311Z,54.33
2023-03-27T09:59:33.603Z,52.85
2023-03-27T10:02:16.721Z,51.78
2023-03-27T10:04:59.235Z,49.57
2023-03-27T10:07:27.255Z,51.92
2023-03-27T10:10:08.965Z,52.36
2023-03-27T10:12:37.527Z,51.02
2023-03-27T10:15:07.716Z,50.12
2023-03-27T10:17:39.522Z,50.48
2023-03-27T10:20:13.825Z,55.21
2023-03-27T10:22:43.276Z,51.50
2023-03-27T10:25:18.560Z,50.38
2023-03-27T10:27:46.622Z,51.08
2023-03-27T10:30:33.421Z,49.04
2023-03-27T10:33:02.612Z,49.79
2023-03-27T10:35:36.497Z,48.86
2023-03-27T10:38:07.368Z,48.35
2023-03-27T10:40:37.715Z,47.35
2023-03-27T10:43:12.601Z,46.69
2023-03-27T10:45:47.702Z,46.42
2023-03-27T10:48:37.243Z,45.95
2023-03-27T10:51:09.153Z,47.71
2023-03-27T10:53:42.418Z,46.62
2023-03-27T10:56:16.343Z,46.63
2023-03-27T10:58:48.827Z,47.59
2023-03-27T11:01:24.867Z,48.49
2023-03-27T11:04:00.578Z,48.96
2023-03-27T11:06:34.385Z,48.08
2023-03-27T11:09:05.926Z,47.96
2023-03-27T11:11:37.484Z,48.13
2023-03-27T11:14:11.118Z,49.02
2023-03-27T11:16:42.207Z,48.67
2023-03-27T11:19:37.473Z,46.60
2023-03-27T11:22:08.597Z,50.86
2023-03-27T11:24:42.891Z,49.21
2023-03-27T11:27:15.046Z,47.99
2023-03-27T11:29:49.760Z,48.73
2023-03-27T11:32:25.348Z,46.09
2023-03-27T11:34:58.488Z,44.32
2023-03-27T11:37:35.680Z,43.35
2023-03-27T11:40:10.241Z,46.20
2023-03-27T11:42:43.136Z,47.29
2023-03-27T11:45:13.488Z,46.90
2023-03-27T11:47:53.155Z,47.32
2023-03-27T11:50:33.357Z,46.58
2023-03-27T11:53:16.314Z,47.65
2023-03-27T11:55:52.233Z,45.87
2023-03-27T11:58:32.197Z,47.80
2023-03-27T12:01:07.985Z,48.66
2023-03-27T12:04:09.117Z,44.79
2023-03-27T12:06:47.142Z,49.77
2023-03-27T12:09:27.100Z,51.47
2023-03-27T12:12:01.046Z,54.14
2023-03-27T12:14:41.124Z,53.64
2023-03-27T12:17:21.740Z,54.31
2023-03-27T12:20:11.955Z,55.45
2023-03-27T12:22:48.649Z,55.96
2023-03-27T12:25:36.308Z,54.87
2023-03-27T12:28:22.733Z,55.16
2023-03-27T12:30:58.910Z,54.72
2023-03-27T12:33:49.903Z,55.71
2023-03-27T12:36:22.206Z,54.90
2023-03-27T12:38:52.861Z,57.05
2023-03-27T12:41:23.880Z,57.07
2023-03-27T12:43:57.118Z,56.33
2023-03-27T12:46:38.480Z,58.55
2023-03-27T12:49:48.061Z,57.43
2023-03-27T12:52:18.655Z,56.00
2023-03-27T12:55:09.230Z,58.80
2023-03-27T12:57:44.264Z,55.28
2023-03-27T13:00:21.717Z,58.77
2023-03-27T13:03:26.032Z,55.52
2023-03-27T13:06:20.470Z,54.38
2023-03-27T13:09:00.809Z,55.52
2023-03-27T13:11:50.398Z,55.36
2023-03-27T13:14:50.177Z,49.64
2023-03-27T13:17:37.551Z,52.41
2023-03-27T13:20:16.639Z,48.78
2023-03-27T13:22:56.826Z,49.61
2023-03-27T13:25:50.587Z,48.96
2023-03-27T13:28:34.455Z,49.11
2023-03-27T13:31:04.401Z,49.30
2023-03-27T13:33:43.610Z,52.39
2023-03-27T13:36:15.009Z,50.86
2023-03-27T13:39:13.233Z,50.27
2023-03-27T13:41:57.132Z,50.28
2023-03-27T13:44:40.599Z,49.13
2023-03-27T13:47:28.246Z,52.65
2023-03-27T13:50:14.236Z,48.25
2023-03-27T13:53:12.655Z,46.67
2023-03-27T13:56:12.938Z,47.63
2023-03-27T13:59:15.256Z,48.16
2023-03-27T14:01:57.594Z,49.02
2023-03-27T14:04:52.659Z,50.84
2023-03-27T14:07:46.581Z,52.96
2023-03-27T14:10:37.188Z,54.97
2023-03-27T14:13:21.553Z,55.32
2023-03-27T14:16:16.221Z,56.52
2023-03-27T14:18:57.370Z,58.75
2023-03-27T14:21:37.910Z,56.23
2023-03-27T14:24:18.097Z,54.57
2023-03-27T14:26:46.347Z,53.90
2023-03-27T14:29:15.454Z,53.24
2023-03-27T14:31:44.382Z,54.46
2023-03-27T14:34:24.596Z,53.01
2023-03-27T14:36:52.865Z,53.80
2023-03-27T14:39:23.631Z,52.73
2023-03-27T14:41:54.342Z,51.22
2023-03-27T14:44:23.932Z,51.79
2023-03-27T14:46:53.206Z,52.95
2023-03-27T14:49:25.723Z,52.11
2023-03-27T14:52:00.150Z,52.32
2023-03-27T14:54:29.486Z,52.06
2023-03-27T14:57:00.237Z,52.97
2023-03-27T14:59:31.540Z,51.50
2023-03-27T15:02:02.049Z,53.02
2023-03-27T15:04:33.753Z,54.20
2023-03-27T15:07:14.290Z,53.95
2023-03-27T15:09:41.880Z,53.47
2023-03-27T15:12:11.201Z,51.43
2023-03-27T15:14:40.385Z,51.69
2023-03-27T15:17:12.211Z,52.12
2023-03-27T15:19:45.691Z,51.59
2023-03-27T15:22:18.103Z,53.24
2023-03-27T15:24:50.897Z,54.70
2023-03-27T15:27:20.967Z,50.80
2023-03-27T15:29:53.346Z,52.90
2023-03-27T15:32:21.958Z,53.56
2023-03-27T15:34:56.811Z,53.44
2023-03-27T15:37:28.542Z,51.40
2023-03-27T15:40:02.076Z,52.76
2023-03-27T15:42:45.743Z,53.68
2023-03-27T15:45:16.896Z,53.07
2023-03-27T15:47:45.564Z,53.24
2023-03-27T15:50:20.885Z,51.83
2023-03-27T15:52:49.416Z,52.23
2023-03-27T15:55:33.996Z,53.14
2023-03-27T15:58:14.811Z,57.13
2023-03-27T16:00:47.434Z,58.41
2023-03-27T16:03:19.523Z,59.60
2023-03-27T16:05:48.938Z,60.14
2023-03-27T16:08:28.304Z,62.35
2023-03-27T16:10:56.922Z,62.54
2023-03-27T16:13:33.222Z,64.36
2023-03-27T16:16:02.823Z,64.13
2023-03-27T16:18:33.951Z,65.46
2023-03-27T16:21:11.069Z,66.97
2023-03-27T16:23:38.641Z,66.08
2023-03-27T16:26:07.930Z,67.05
2023-03-27T16:28:36.501Z,67.36
2023-03-27T16:31:12.269Z,67.55
2023-03-27T16:33:42.782Z,66.47
2023-03-27T16:36:13.215Z,67.03
2023-03-27T16:38:42.404Z,66.38
2023-03-27T16:41:13.790Z,66.87
2023-03-27T16:43:41.527Z,67.00
2023-03-27T16:46:18.221Z,68.71
2023-03-27T16:48:45.860Z,67.30
2023-03-27T16:51:14.996Z,68.72
2023-03-27T16:53:43.991Z,67.47
2023-03-27T16:56:12.297Z,66.93
2023-03-27T16:58:40.229Z,67.28
2023-03-27T17:01:08.697Z,68.40
2023-03-27T17:03:37.157Z,70.15
2023-03-27T17:06:07.076Z,69.43
2023-03-27T17:08:36.603Z,70.65
2023-03-27T17:11:05.499Z,67.93
2023-03-27T17:13:33.236Z,66.26
2023-03-27T17:16:00.863Z,69.86
2023-03-27T17:18:28.473Z,68.21
2023-03-27T17:20:56.410Z,68.38
2023-03-27T17:23:24.211Z,68.98
2023-03-27T17:25:53.113Z,69.44
2023-03-27T17:28:20.710Z,69.81
2023-03-27T17:31:01.047Z,69.71
2023-03-27T17:33:31.868Z,68.86
2023-03-27T17:35:59.588Z,68.93
2023-03-27T17:38:27.523Z,68.29
2023-03-27T17:40:56.515Z,69.39
2023-03-27T17:43:24.053Z,68.01
2023-03-27T17:45:51.592Z,68.76
2023-03-27T17:48:19.103Z,67.73
2023-03-27T17:50:54.735Z,69.40
2023-03-27T17:53:29.298Z,68.67
2023-03-27T17:55:59.202Z,69.73
2023-03-27T17:58:28.604Z,68.21
2023-03-27T18:00:56.589Z,68.00
2023-03-27T18:03:24.608Z,67.68
2023-03-27T18:05:52.241Z,68.30
2023-03-27T18:08:20.799Z,68.25
2023-03-27T18:10:50.623Z,68.77
2023-03-27T18:13:20.514Z,68.08
2023-03-27T18:15:48.216Z,69.20
2023-03-27T18:18:15.885Z,68.65
2023-03-27T18:20:43.426Z,70.04
2023-03-27T18:23:10.966Z,68.51
2023-03-27T18:25:41.867Z,68.68
2023-03-27T18:28:10.420Z,69.31
2023-03-27T18:30:39.760Z,69.42
2023-03-27T18:33:07.328Z,67.97
2023-03-27T18:35:36.785Z,67.58
2023-03-27T18:38:04.637Z,67.84
2023-03-27T18:40:33.247Z,69.27
2023-03-27T18:43:00.899Z,69.42
2023-03-27T18:45:28.576Z,69.15
2023-03-27T18:47:57.534Z,70.33
2023-03-27T18:50:25.221Z,68.93
2023-03-27T18:52:53.403Z,69.20
2023-03-27T18:55:21.052Z,68.02
2023-03-27T18:57:48.566Z,68.55
2023-03-27T19:00:18.448Z,68.50
2023-03-27T19:02:46.253Z,68.79
2023-03-27T19:05:16.212Z,70.67
2023-03-27T19:07:46.804Z,71.03
2023-03-27T19:10:14.725Z,69.90
2023-03-27T19:12:42.207Z,69.13
2023-03-27T19:15:19.924Z,69.51
2023-03-27T19:17:48.067Z,68.93
2023-03-27T19:20:17.277Z,69.68
2023-03-27T19:22:44.752Z,69.34
2023-03-27T19:25:12.284Z,69.14
2023-03-27T19:27:39.934Z,69.12
2023-03-27T19:30:09.226Z,69.45
2023-03-27T19:32:36.922Z,69.07
2023-03-27T19:35:04.802Z,69.99
2023-03-27T19:37:34.293Z,69.65
2023-03-27T19:40:01.845Z,70.23
2023-03-27T19:42:29.528Z,70.53
2023-03-27T19:44:57.421Z,70.67
2023-03-27T19:47:24.956Z,70.52
2023-03-27T19:49:53.556Z,70.93
2023-03-27T19:52:22.569Z,70.99
2023-03-27T19:54:51.552Z,69.35
2023-03-27T19:57:19.181Z,70.01
2023-03-27T19:59:46.780Z,70.66
2023-03-27T20:02:14.725Z,71.66
2023-03-27T20:04:42.556Z,72.45
2023-03-27T20:07:10.334Z,70.68
2023-03-27T20:09:38.458Z,70.07
2023-03-27T20:12:07.955Z,72.64
2023-03-27T20:14:35.535Z,71.45
2023-03-27T20:17:03.079Z,71.73
2023-03-27T20:19:34.845Z,70.85
2023-03-27T20:22:03.973Z,70.13
2023-03-27T20:24:31.492Z,69.99
2023-03-27T20:26:59.029Z,70.10
2023-03-27T20:29:28.057Z,70.14
2023-03-27T20:31:55.813Z,70.92
2023-03-27T20:34:24.173Z,71.11
2023-03-27T20:36:52.932Z,71.05
2023-03-27T20:39:20.822Z,69.81
2023-03-27T20:41:48.995Z,70.75
2023-03-27T20:44:16.659Z,72.28
2023-03-27T20:46:50.949Z,71.91
2023-03-27T20:51:57.097Z,71.44
2023-03-27T20:54:24.674Z,72.15
2023-03-27T20:56:52.238Z,73.38
2023-03-27T20:59:19.828Z,73.04
2023-03-27T21:01:48.722Z,72.71
2023-03-27T21:04:16.485Z,72.01
2023-03-27T21:06:44.331Z,71.56
2023-03-27T21:09:13.822Z,70.96
2023-03-27T21:11:41.594Z,71.98
2023-03-27T21:14:09.215Z,73.00
2023-03-27T21:16:37.601Z,73.09
2023-03-27T21:19:06.647Z,73.32
2023-03-27T21:21:34.183Z,72.52
2023-03-27T21:24:01.688Z,72.83
2023-03-27T21:26:29.171Z,72.60
2023-03-27T21:28:56.680Z,73.00
2023-03-27T21:31:24.231Z,74.00
2023-03-27T21:33:51.793Z,73.12
2023-03-27T21:36:20.805Z,73.29
2023-03-27T21:38:48.472Z,72.52
2023-03-27T21:41:18.008Z,72.37
2023-03-27T21:43:45.844Z,73.87
2023-03-27T21:46:13.605Z,73.42
2023-03-27T21:48:42.936Z,73.08
2023-03-27T21:51:10.480Z,72.46
2023-03-27T21:53:39.354Z,73.09
2023-03-27T21:56:07.883Z,73.39
2023-03-27T21:58:35.548Z,74.61
2023-03-27T22:01:03.601Z,74.61
2023-03-27T22:03:31.429Z,74.05
2023-03-27T22:06:11.510Z,75.62
2023-03-27T22:08:42.423Z,74.27
2023-03-27T22:11:10.901Z,74.83
2023-03-27T22:13:39.562Z,74.65
2023-03-27T22:16:11.012Z,73.24
2023-03-27T22:18:38.732Z,73.15
2023-03-27T22:21:17.514Z,74.48
2023-03-27T22:23:46.939Z,73.66
2023-03-27T22:26:14.535Z,73.22
2023-03-27T22:28:42.044Z,73.56
2023-03-27T22:31:10.020Z,73.63
2023-03-27T22:33:38.127Z,72.64
2023-03-27T22:36:07.178Z,72.45
2023-03-27T22:38:34.723Z,72.96
2023-03-27T22:41:05.919Z,72.62
2023-03-27T22:43:33.642Z,72.94
2023-03-27T22:46:05.802Z,73.18
2023-03-27T22:48:33.518Z,73.77
2023-03-27T22:51:01.442Z,73.70
2023-03-27T22:53:29.400Z,72.76
2023-03-27T22:55:58.236Z,71.87
2023-03-27T22:58:27.923Z,71.50
2023-03-27T23:00:56.441Z,71.26
2023-03-27T23:03:25.588Z,72.36
2023-03-27T23:05:54.399Z,73.32
2023-03-27T23:08:24.962Z,74.55
2023-03-27T23:10:56.401Z,74.32
2023-03-27T23:13:24.071Z,73.80
2023-03-27T23:15:53.422Z,72.93
2023-03-27T23:18:24.501Z,73.03
2023-03-27T23:20:56.136Z,71.52
2023-03-27T23:23:24.189Z,71.39
2023-03-27T23:25:51.924Z,71.11
2023-03-27T23:28:19.516Z,71.12
2023-03-27T23:30:54.793Z,72.77
2023-03-27T23:33:24.840Z,72.71
2023-03-27T23:35:53.026Z,71.71
2023-03-27T23:38:20.517Z,71.26
2023-03-27T23:40:47.967Z,70.65
2023-03-27T23:43:15.408Z,71.48
2023-03-27T23:45:43.719Z,71.12
2023-03-27T23:48:12.577Z,71.50
2023-03-27T23:50:40.120Z,72.15
2023-03-27T23:53:07.639Z,72.51
2023-03-27T23:55:35.243Z,71.95
2023-03-27T23:58:02.725Z,70.81
